createdAt,value
2017-09-24T00:01:37.745Z,18.07
2017-09-24T00:04:06.086Z,20.70
2017-09-24T00:06:34.400Z,24.60
2017-09-24T00:09:02.788Z,17.13
2017-09-24T00:11:31.138Z,20.00
2017-09-24T00:13:59.455Z,20.20
2017-09-24T00:16:27.799Z,17.40
2017-09-24T00:18:56.124Z,18.97
2017-09-24T00:21:25.223Z,20.70
2017-09-24T00:23:54.304Z,25.03
2017-09-24T00:26:22.657Z,19.13
2017-09-24T00:28:50.999Z,20.57
2017-09-24T00:31:19.328Z,23.47
2017-09-24T00:33:47.674Z,32.17
2017-09-24T00:36:15.987Z,20.33
2017-09-24T00:38:44.332Z,20.50
2017-09-24T00:41:12.668Z,19.20
2017-09-24T00:43:41.904Z,22.23
2017-09-24T00:46:10.225Z,17.13
2017-09-24T00:48:38.546Z,22.00
2017-09-24T00:51:06.889Z,21.17
2017-09-24T00:53:35.220Z,18.40
2017-09-24T00:56:03.542Z,17.20
2017-09-24T00:58:31.869Z,26.40
2017-09-24T01:01:00.465Z,18.80
2017-09-24T01:03:28.820Z,19.43
2017-09-24T01:05:57.902Z,22.70
2017-09-24T01:08:27.034Z,26.53
2017-09-24T01:10:55.346Z,17.70
2017-09-24T01:13:23.700Z,16.47
2017-09-24T01:15:52.031Z,19.87
2017-09-24T01:18:20.615Z,21.33
2017-09-24T01:20:48.942Z,22.17
2017-09-24T01:23:17.255Z,15.67
2017-09-24T01:25:45.614Z,17.03
2017-09-24T01:28:13.942Z,21.53
2017-09-24T01:30:43.046Z,27.00
2017-09-24T01:33:12.133Z,22.60
2017-09-24T01:35:41.241Z,21.30
2017-09-24T01:38:10.329Z,16.73
2017-09-24T01:40:39.445Z,20.40
2017-09-24T01:43:07.776Z,19.00
2017-09-24T01:45:36.087Z,20.60
2017-09-24T01:48:05.193Z,19.90
2017-09-24T01:50:33.527Z,27.60
2017-09-24T01:53:01.882Z,18.97
2017-09-24T01:55:30.264Z,21.63
2017-09-24T01:57:58.622Z,18.70
2017-09-24T02:00:26.961Z,20.50
2017-09-24T02:02:55.296Z,15.93
2017-09-24T02:05:23.628Z,18.40
2017-09-24T02:07:51.952Z,23.07
2017-09-24T02:10:20.610Z,17.40
2017-09-24T02:12:49.700Z,15.50
2017-09-24T02:15:18.857Z,18.20
2017-09-24T02:17:47.199Z,21.53
2017-09-24T02:20:15.533Z,19.10
2017-09-24T02:22:43.877Z,17.00
2017-09-24T02:25:12.189Z,17.07
2017-09-24T02:27:40.537Z,19.33
2017-09-24T02:30:08.859Z,18.23
2017-09-24T02:32:37.217Z,19.47
2017-09-24T02:35:05.564Z,18.77
2017-09-24T02:37:33.896Z,20.40
2017-09-24T02:40:02.254Z,16.13
2017-09-24T02:42:30.596Z,20.67
2017-09-24T02:44:58.943Z,18.60
2017-09-24T02:47:28.040Z,16.43
2017-09-24T02:49:57.129Z,23.23
2017-09-24T02:52:25.454Z,19.97
2017-09-24T02:54:53.784Z,16.07
2017-09-24T02:57:22.889Z,20.10
2017-09-24T02:59:52.029Z,22.27
2017-09-24T03:02:20.372Z,17.47
2017-09-24T03:04:49.481Z,20.07
2017-09-24T03:07:18.567Z,20.67
2017-09-24T03:09:47.663Z,19.50
2017-09-24T03:12:16.744Z,25.33
2017-09-24T03:14:45.073Z,18.50
2017-09-24T03:17:13.406Z,22.90
2017-09-24T03:19:41.747Z,21.30
2017-09-24T03:22:10.081Z,18.77
2017-09-24T03:24:39.180Z,16.50
2017-09-24T03:27:08.289Z,19.67
2017-09-24T03:29:36.707Z,17.23
2017-09-24T03:32:05.804Z,19.10
2017-09-24T03:34:34.127Z,18.50
2017-09-24T03:37:03.503Z,16.43
2017-09-24T03:39:31.818Z,19.03
2017-09-24T03:42:00.146Z,21.70
2017-09-24T03:44:28.483Z,17.40
2017-09-24T03:46:56.857Z,21.87
2017-09-24T03:49:25.971Z,15.73
2017-09-24T03:51:54.283Z,22.90
2017-09-24T03:54:22.891Z,17.40
2017-09-24T03:56:51.221Z,19.47
2017-09-24T03:59:19.534Z,18.13
2017-09-24T04:01:47.874Z,16.83
2017-09-24T04:04:16.218Z,19.63
2017-09-24T04:06:45.327Z,19.13
2017-09-24T04:09:14.420Z,18.30
2017-09-24T04:11:43.788Z,20.00
2017-09-24T04:14:12.118Z,15.60
2017-09-24T04:16:41.137Z,20.70
2017-09-24T04:19:09.454Z,16.33
2017-09-24T04:21:37.783Z,18.23
2017-09-24T04:24:06.127Z,18.60
2017-09-24T04:26:35.207Z,20.20
2017-09-24T04:29:03.521Z,21.70
2017-09-24T04:31:31.835Z,17.77
2017-09-24T04:34:00.172Z,19.20
2017-09-24T04:36:29.274Z,22.70
2017-09-24T04:38:57.638Z,17.53
2017-09-24T04:41:26.792Z,15.60
2017-09-24T04:43:55.117Z,19.77
2017-09-24T04:46:24.253Z,17.43
2017-09-24T04:48:52.568Z,19.07
2017-09-24T04:51:20.906Z,21.17
2017-09-24T04:53:49.241Z,20.70
2017-09-24T04:56:18.331Z,18.73
2017-09-24T04:58:46.759Z,15.23
2017-09-24T05:01:15.066Z,17.67
2017-09-24T05:03:43.661Z,17.73
2017-09-24T05:06:11.995Z,20.30
2017-09-24T05:08:40.306Z,18.53
2017-09-24T05:11:08.643Z,26.97
2017-09-24T05:13:36.964Z,16.80
2017-09-24T05:16:05.309Z,19.60
2017-09-24T05:18:33.632Z,16.83
2017-09-24T05:21:02.273Z,16.73
2017-09-24T05:23:30.593Z,17.50
2017-09-24T05:25:58.916Z,19.10
2017-09-24T05:28:28.041Z,18.33
2017-09-24T05:30:56.372Z,21.53
2017-09-24T05:33:24.745Z,39.87
2017-09-24T05:35:53.106Z,32.90
2017-09-24T05:38:21.707Z,26.53
2017-09-24T05:40:50.014Z,29.50
2017-09-24T05:43:19.108Z,37.03
2017-09-24T05:45:48.202Z,39.30
2017-09-24T05:48:17.282Z,34.17
2017-09-24T05:50:45.621Z,40.97
2017-09-24T05:53:13.955Z,50.57
2017-09-24T05:55:43.064Z,45.37
2017-09-24T05:58:11.409Z,38.17
2017-09-24T06:00:39.752Z,46.70
2017-09-24T06:03:08.160Z,46.63
2017-09-24T06:05:37.428Z,34.00
2017-09-24T06:08:05.818Z,41.53
2017-09-24T06:10:34.140Z,48.70
2017-09-24T06:13:13.266Z,46.57
2017-09-24T06:15:42.934Z,41.33
2017-09-24T06:18:11.522Z,50.13
2017-09-24T06:20:39.844Z,38.77
2017-09-24T06:23:08.179Z,52.10
2017-09-24T06:25:36.530Z,53.03
2017-09-24T06:28:04.862Z,40.30
2017-09-24T06:30:33.205Z,47.00
2017-09-24T06:33:01.520Z,55.13
2017-09-24T06:35:30.122Z,45.23
2017-09-24T06:37:58.442Z,45.87
2017-09-24T06:40:26.775Z,54.90
2017-09-24T06:42:55.111Z,53.97
2017-09-24T06:45:23.434Z,45.50
2017-09-24T06:47:51.764Z,53.80
2017-09-24T06:50:20.089Z,51.03
2017-09-24T06:52:48.702Z,47.00
2017-09-24T06:55:17.799Z,60.93
2017-09-24T06:57:46.927Z,47.03
2017-09-24T07:00:15.267Z,48.80
2017-09-24T07:02:45.963Z,48.90
2017-09-24T07:05:14.324Z,44.60
2017-09-24T07:07:42.649Z,46.53
2017-09-24T07:10:11.048Z,54.37
2017-09-24T07:12:40.216Z,45.03
2017-09-24T07:15:08.554Z,42.87
2017-09-24T07:17:36.891Z,38.07
2017-09-24T07:20:05.992Z,30.53
2017-09-24T07:22:35.374Z,35.00
2017-09-24T07:25:03.707Z,38.83
2017-09-24T07:27:32.036Z,32.43
2017-09-24T07:30:00.384Z,30.37
2017-09-24T07:32:28.708Z,30.90
2017-09-24T07:34:57.049Z,31.90
2017-09-24T07:37:25.407Z,28.97
2017-09-24T07:39:53.733Z,35.77
2017-09-24T07:42:22.644Z,31.97
2017-09-24T07:44:51.775Z,29.60
2017-09-24T07:47:20.968Z,32.17
2017-09-24T07:49:49.311Z,31.67
2017-09-24T07:52:18.419Z,29.20
2017-09-24T07:54:47.535Z,27.77
2017-09-24T07:57:15.884Z,27.93
2017-09-24T07:59:45.025Z,28.10
2017-09-24T08:02:13.364Z,31.00
2017-09-24T08:04:42.467Z,28.27
2017-09-24T08:07:11.565Z,30.10
2017-09-24T08:09:40.807Z,32.00
2017-09-24T08:12:09.135Z,28.30
2017-09-24T08:14:38.262Z,27.43
2017-09-24T08:17:06.611Z,28.47
2017-09-24T08:19:34.947Z,32.30
2017-09-24T08:22:03.294Z,33.37
2017-09-24T08:24:31.700Z,31.67
2017-09-24T08:27:00.044Z,32.07
2017-09-24T08:29:29.163Z,31.73
2017-09-24T08:31:57.503Z,28.07
2017-09-24T08:34:26.922Z,31.17
2017-09-24T08:36:56.685Z,27.77
2017-09-24T08:39:25.030Z,27.77
2017-09-24T08:41:53.367Z,29.83
2017-09-24T08:44:21.688Z,30.03
2017-09-24T08:46:50.326Z,26.07
2017-09-24T08:49:18.657Z,25.67
2017-09-24T08:51:46.983Z,26.37
2017-09-24T08:54:15.338Z,26.60
2017-09-24T08:56:43.694Z,26.30
2017-09-24T08:59:12.045Z,36.23
2017-09-24T09:01:41.357Z,25.70
2017-09-24T09:04:10.734Z,23.90
2017-09-24T09:06:39.108Z,29.77
2017-09-24T09:09:07.489Z,24.47
2017-09-24T09:11:35.848Z,23.67
2017-09-24T09:14:04.188Z,25.80
2017-09-24T09:16:33.313Z,24.93
2017-09-24T09:19:01.667Z,25.50
2017-09-24T09:21:47.335Z,26.00
2017-09-24T09:24:16.438Z,37.50
2017-09-24T09:26:45.853Z,26.50
2017-09-24T09:29:14.188Z,27.30
2017-09-24T09:31:42.549Z,24.73
2017-09-24T09:34:28.454Z,25.77
2017-09-24T09:36:56.804Z,23.47
2017-09-24T09:39:26.076Z,22.47
2017-09-24T09:41:55.198Z,30.93
2017-09-24T09:44:41.190Z,36.60
2017-09-24T09:47:26.940Z,39.03
2017-09-24T09:49:55.283Z,35.23
2017-09-24T09:52:23.624Z,25.77
2017-09-24T09:54:52.312Z,30.00
2017-09-24T09:57:20.658Z,38.03
2017-09-24T09:59:49.715Z,84.63
2017-09-24T10:02:18.081Z,40.60
2017-09-24T10:04:46.430Z,29.40
2017-09-24T10:07:33.270Z,24.60
2017-09-24T10:10:17.227Z,25.30
2017-09-24T10:12:46.314Z,25.77
2017-09-24T10:15:14.655Z,26.27
2017-09-24T10:17:47.202Z,23.50
2017-09-24T10:20:15.533Z,22.87
2017-09-24T10:22:43.868Z,20.87
2017-09-24T10:25:12.225Z,24.63
2017-09-24T10:27:40.560Z,26.47
2017-09-24T10:30:26.746Z,24.17
2017-09-24T10:32:55.835Z,24.73
2017-09-24T10:35:24.687Z,22.60
2017-09-24T10:37:53.034Z,19.70
2017-09-24T10:40:21.364Z,18.23
2017-09-24T10:42:49.811Z,21.33
2017-09-24T10:45:18.150Z,18.27
2017-09-24T10:47:47.274Z,18.20
2017-09-24T10:50:15.599Z,22.30
2017-09-24T10:52:44.352Z,18.20
2017-09-24T10:55:12.711Z,15.33
2017-09-24T10:57:41.065Z,14.63
2017-09-24T11:00:10.265Z,19.43
2017-09-24T11:02:38.694Z,18.97
2017-09-24T11:05:07.057Z,19.57
2017-09-24T11:07:35.378Z,19.33
2017-09-24T11:10:03.738Z,18.17
2017-09-24T11:12:32.111Z,19.43
2017-09-24T11:15:00.440Z,18.87
2017-09-24T11:17:28.788Z,16.40
2017-09-24T11:19:57.145Z,17.27
2017-09-24T11:22:25.487Z,18.77
2017-09-24T11:24:53.822Z,15.90
2017-09-24T11:27:22.169Z,14.90
2017-09-24T11:29:51.274Z,17.33
2017-09-24T11:32:20.359Z,14.90
2017-09-24T11:34:49.472Z,20.53
2017-09-24T11:37:17.839Z,17.97
2017-09-24T11:39:46.295Z,21.40
2017-09-24T11:42:14.625Z,17.20
2017-09-24T11:44:42.960Z,14.57
2017-09-24T11:47:12.099Z,12.27
2017-09-24T11:49:40.424Z,16.80
2017-09-24T11:52:08.778Z,13.33
2017-09-24T11:54:37.121Z,14.13
2017-09-24T11:57:07.640Z,15.97
2017-09-24T11:59:36.728Z,17.73
2017-09-24T12:02:05.064Z,15.90
2017-09-24T12:04:33.412Z,12.67
2017-09-24T12:07:01.762Z,14.77
2017-09-24T12:09:30.872Z,13.80
2017-09-24T12:11:59.241Z,13.00
2017-09-24T12:14:38.291Z,12.90
2017-09-24T12:17:06.615Z,13.70
2017-09-24T12:19:34.950Z,29.93
2017-09-24T12:22:10.115Z,12.90
2017-09-24T12:24:44.663Z,13.37
2017-09-24T12:27:13.039Z,12.07
2017-09-24T12:29:41.386Z,12.80
2017-09-24T12:32:10.006Z,16.00
2017-09-24T12:34:38.352Z,17.73
2017-09-24T12:37:06.684Z,13.87
2017-09-24T12:39:35.050Z,13.90
2017-09-24T12:42:03.383Z,22.07
2017-09-24T12:44:32.642Z,15.00
2017-09-24T12:47:00.999Z,18.97
2017-09-24T12:49:29.615Z,14.30
2017-09-24T12:51:58.711Z,15.17
2017-09-24T12:54:27.827Z,13.60
2017-09-24T12:56:56.963Z,16.00
2017-09-24T12:59:25.294Z,13.83
2017-09-24T13:01:54.405Z,82.13
2017-09-24T13:04:22.740Z,55.97
2017-09-24T13:06:51.404Z,13.17
2017-09-24T13:09:19.728Z,18.03
2017-09-24T13:11:48.835Z,21.07
2017-09-24T13:14:17.969Z,18.57
2017-09-24T13:16:46.343Z,12.43
2017-09-24T13:19:14.694Z,12.30
2017-09-24T13:21:43.783Z,14.63
2017-09-24T13:24:13.157Z,12.07
2017-09-24T13:26:41.471Z,9.43
2017-09-24T13:29:10.562Z,9.47
2017-09-24T13:31:39.679Z,9.17
2017-09-24T13:34:08.009Z,12.80
2017-09-24T13:36:36.360Z,10.00
2017-09-24T13:39:04.714Z,9.33
2017-09-24T13:41:33.049Z,10.03
2017-09-24T13:44:01.449Z,10.97
2017-09-24T13:46:30.573Z,11.43
2017-09-24T13:48:58.925Z,12.97
2017-09-24T13:51:28.091Z,14.50
2017-09-24T13:53:56.437Z,10.90
2017-09-24T13:56:24.781Z,13.27
2017-09-24T13:58:53.904Z,15.23
2017-09-24T14:01:22.261Z,13.87
2017-09-24T14:03:51.362Z,9.57
2017-09-24T14:06:20.476Z,15.63
2017-09-24T14:08:48.814Z,11.80
2017-09-24T14:11:17.206Z,7.50
2017-09-24T14:13:45.539Z,9.20
2017-09-24T14:16:13.889Z,11.70
2017-09-24T14:18:43.033Z,11.50
2017-09-24T14:21:11.359Z,9.90
2017-09-24T14:23:40.492Z,62.97
2017-09-24T14:26:08.830Z,13.07
2017-09-24T14:28:38.209Z,14.47
2017-09-24T14:31:06.538Z,15.50
2017-09-24T14:33:35.121Z,16.60
2017-09-24T14:36:03.736Z,12.43
2017-09-24T14:38:32.100Z,12.60
2017-09-24T14:41:00.443Z,13.70
2017-09-24T14:43:29.744Z,20.87
2017-09-24T14:45:58.387Z,19.40
2017-09-24T14:48:26.715Z,13.17
2017-09-24T14:50:55.827Z,13.10
2017-09-24T14:53:24.200Z,13.00
2017-09-24T14:55:52.530Z,10.70
2017-09-24T14:58:20.878Z,14.00
2017-09-24T15:00:49.196Z,12.23
2017-09-24T15:03:17.581Z,12.33
2017-09-24T15:05:45.924Z,11.80
2017-09-24T15:08:14.265Z,11.30
2017-09-24T15:10:43.391Z,11.17
2017-09-24T15:13:11.740Z,12.23
2017-09-24T15:15:40.866Z,15.90
2017-09-24T15:18:09.197Z,14.67
2017-09-24T15:20:37.916Z,10.30
2017-09-24T15:23:06.386Z,13.13
2017-09-24T15:25:34.728Z,22.60
2017-09-24T15:28:03.083Z,9.30
2017-09-24T15:30:31.405Z,15.53
2017-09-24T15:32:59.770Z,12.60
2017-09-24T15:35:28.100Z,9.80
2017-09-24T15:37:56.704Z,15.00
2017-09-24T15:40:25.035Z,12.90
2017-09-24T15:42:53.360Z,12.70
2017-09-24T15:45:21.720Z,14.90
2017-09-24T15:47:50.118Z,12.40
2017-09-24T15:50:18.474Z,13.33
2017-09-24T15:52:47.200Z,11.00
2017-09-24T15:55:15.803Z,12.53
2017-09-24T15:57:44.148Z,10.40
2017-09-24T16:00:12.522Z,14.00
2017-09-24T16:02:41.459Z,12.47
2017-09-24T16:05:09.805Z,13.87
2017-09-24T16:07:38.166Z,14.80
2017-09-24T16:10:06.532Z,20.10
2017-09-24T16:12:35.665Z,14.93
2017-09-24T16:15:04.001Z,15.97
2017-09-24T16:17:33.111Z,15.60
2017-09-24T16:20:02.231Z,17.20
2017-09-24T16:22:30.568Z,17.17
2017-09-24T16:25:00.540Z,14.87
2017-09-24T16:27:28.860Z,15.10
2017-09-24T16:29:57.228Z,13.33
2017-09-24T16:32:26.364Z,21.73
2017-09-24T16:34:56.121Z,18.03
2017-09-24T16:37:24.991Z,15.20
2017-09-24T16:39:53.312Z,15.03
2017-09-24T16:42:21.660Z,15.20
2017-09-24T16:44:50.209Z,21.60
2017-09-24T16:47:18.895Z,20.30
2017-09-24T16:49:47.235Z,11.63
2017-09-24T16:52:15.569Z,18.23
2017-09-24T16:54:43.920Z,13.90
2017-09-24T16:57:13.029Z,13.40
2017-09-24T16:59:41.367Z,19.57
2017-09-24T17:02:09.710Z,12.50
2017-09-24T17:04:38.072Z,15.57
2017-09-24T17:07:06.410Z,13.43
2017-09-24T17:09:34.786Z,10.17
2017-09-24T17:12:03.139Z,10.93
2017-09-24T17:14:31.571Z,12.20
2017-09-24T17:16:59.944Z,20.87
2017-09-24T17:19:28.784Z,26.93
2017-09-24T17:21:57.166Z,15.70
2017-09-24T17:24:25.499Z,23.00
2017-09-24T17:26:55.047Z,13.60
2017-09-24T17:29:23.425Z,13.10
2017-09-24T17:31:51.785Z,10.07
2017-09-24T17:34:20.903Z,14.87
2017-09-24T17:36:49.257Z,19.43
2017-09-24T17:39:19.789Z,12.60
2017-09-24T17:41:48.193Z,14.30
2017-09-24T17:44:16.535Z,15.33
2017-09-24T17:46:44.873Z,25.30
2017-09-24T17:49:13.344Z,18.10
2017-09-24T17:51:41.679Z,12.30
2017-09-24T17:54:10.777Z,16.07
2017-09-24T17:56:39.141Z,11.67
2017-09-24T17:59:07.659Z,16.20
2017-09-24T18:01:37.102Z,16.40
2017-09-24T18:04:05.434Z,15.00
2017-09-24T18:06:34.053Z,15.60
2017-09-24T18:09:02.391Z,20.57
2017-09-24T18:11:31.495Z,11.50
2017-09-24T18:13:59.858Z,16.60
2017-09-24T18:16:28.209Z,15.67
2017-09-24T18:18:56.568Z,18.67
2017-09-24T18:21:25.669Z,17.57
2017-09-24T18:23:54.036Z,27.00
2017-09-24T18:26:22.367Z,14.40
2017-09-24T18:28:50.722Z,21.60
2017-09-24T18:31:19.098Z,21.40
2017-09-24T18:33:47.438Z,15.80
2017-09-24T18:36:15.822Z,15.60
2017-09-24T18:38:44.193Z,16.13
2017-09-24T18:41:12.546Z,14.23
2017-09-24T18:43:40.898Z,13.93
2017-09-24T18:46:09.236Z,14.37
2017-09-24T18:48:37.576Z,15.30
2017-09-24T18:51:05.941Z,22.63
2017-09-24T18:53:34.288Z,14.40
2017-09-24T18:56:02.654Z,12.70
2017-09-24T18:58:30.998Z,18.67
2017-09-24T19:01:00.432Z,15.47
2017-09-24T19:03:28.775Z,12.63
2017-09-24T19:05:57.229Z,18.50
2017-09-24T19:08:26.321Z,18.27
2017-09-24T19:10:54.668Z,19.30
2017-09-24T19:13:23.798Z,16.60
2017-09-24T19:15:52.128Z,15.00
2017-09-24T19:18:20.498Z,15.70
2017-09-24T19:20:51.641Z,20.20
2017-09-24T19:23:20.267Z,15.10
2017-09-24T19:25:48.649Z,17.37
2017-09-24T19:28:17.006Z,18.83
2017-09-24T19:30:45.400Z,18.83
2017-09-24T19:33:14.789Z,15.07
2017-09-24T19:35:43.141Z,16.00
2017-09-24T19:38:11.506Z,18.07
2017-09-24T19:40:39.870Z,12.57
2017-09-24T19:43:08.210Z,18.70
2017-09-24T19:45:37.659Z,15.10
2017-09-24T19:48:06.007Z,14.60
2017-09-24T19:50:34.344Z,17.80
2017-09-24T19:53:02.965Z,14.33
2017-09-24T19:55:32.078Z,18.33
2017-09-24T19:58:00.450Z,17.73
2017-09-24T20:00:28.799Z,14.40
2017-09-24T20:02:57.157Z,20.03
2017-09-24T20:05:25.501Z,21.10
2017-09-24T20:07:54.650Z,17.53
2017-09-24T20:10:24.039Z,15.60
2017-09-24T20:12:52.399Z,14.57
2017-09-24T20:15:20.743Z,17.63
2017-09-24T20:17:49.091Z,24.03
2017-09-24T20:20:17.473Z,19.93
2017-09-24T20:22:46.937Z,14.67
2017-09-24T20:25:15.289Z,17.13
2017-09-24T20:27:45.107Z,20.50
2017-09-24T20:30:13.463Z,18.17
2017-09-24T20:32:42.576Z,13.57
2017-09-24T20:35:11.705Z,18.13
2017-09-24T20:37:40.063Z,21.97
2017-09-24T20:40:08.424Z,18.50
2017-09-24T20:42:37.518Z,15.43
2017-09-24T20:45:05.897Z,18.90
2017-09-24T20:47:34.245Z,21.50
2017-09-24T20:50:02.587Z,19.90
2017-09-24T20:52:30.947Z,20.80
2017-09-24T20:54:59.315Z,17.63
2017-09-24T20:57:27.916Z,18.00
2017-09-24T20:59:57.013Z,13.73
2017-09-24T21:02:25.350Z,23.07
2017-09-24T21:04:53.708Z,16.37
2017-09-24T21:07:22.036Z,22.40
2017-09-24T21:09:51.171Z,15.93
2017-09-24T21:12:19.511Z,18.10
2017-09-24T21:14:47.855Z,18.20
2017-09-24T21:17:16.186Z,17.87
2017-09-24T21:19:45.318Z,17.40
2017-09-24T21:22:13.658Z,17.13
2017-09-24T21:24:41.975Z,16.07
2017-09-24T21:27:10.315Z,25.67
2017-09-24T21:29:39.415Z,26.80
2017-09-24T21:32:07.764Z,19.87
2017-09-24T21:34:36.099Z,16.27
2017-09-24T21:37:04.453Z,16.70
2017-09-24T21:39:33.575Z,23.70
2017-09-24T21:42:01.914Z,15.73
2017-09-24T21:44:31.031Z,15.03
2017-09-24T21:46:59.365Z,14.73
2017-09-24T21:49:27.748Z,18.00
2017-09-24T21:51:56.071Z,16.37
2017-09-24T21:54:24.421Z,17.33
2017-09-24T21:56:52.754Z,25.07
2017-09-24T21:59:21.096Z,19.00
2017-09-24T22:01:50.200Z,16.50
2017-09-24T22:04:18.545Z,18.93
2017-09-24T22:06:46.908Z,14.30
2017-09-24T22:09:16.775Z,15.97
2017-09-24T22:11:45.859Z,15.90
2017-09-24T22:14:15.078Z,15.23
2017-09-24T22:16:43.432Z,18.07
2017-09-24T22:19:12.534Z,18.93
2017-09-24T22:21:41.722Z,17.83
2017-09-24T22:24:10.190Z,24.63
2017-09-24T22:26:38.528Z,14.33
2017-09-24T22:29:06.847Z,16.20
2017-09-24T22:31:35.190Z,19.10
2017-09-24T22:34:03.513Z,15.83
2017-09-24T22:36:31.846Z,16.93
2017-09-24T22:39:00.163Z,24.53
2017-09-24T22:41:28.875Z,15.20
2017-09-24T22:43:58.376Z,20.07
2017-09-24T22:46:27.471Z,30.87
2017-09-24T22:48:55.804Z,16.63
2017-09-24T22:51:24.145Z,22.70
2017-09-24T22:53:53.276Z,21.57
2017-09-24T22:56:21.599Z,23.23
2017-09-24T22:58:50.319Z,20.80
2017-09-24T23:01:18.664Z,19.60
2017-09-24T23:03:47.002Z,16.93
2017-09-24T23:06:15.559Z,16.37
2017-09-24T23:08:44.650Z,29.43
2017-09-24T23:11:13.776Z,16.20
2017-09-24T23:13:42.123Z,19.20
2017-09-24T23:16:13.001Z,15.90
2017-09-24T23:18:41.318Z,20.00
2017-09-24T23:21:09.654Z,13.23
2017-09-24T23:23:38.029Z,23.00
2017-09-24T23:26:06.370Z,16.07
2017-09-24T23:28:35.475Z,23.10
2017-09-24T23:31:03.805Z,18.43
2017-09-24T23:33:32.578Z,16.50
2017-09-24T23:36:00.915Z,15.43
2017-09-24T23:38:29.234Z,14.37
2017-09-24T23:40:57.576Z,18.60
2017-09-24T23:43:26.674Z,16.40
2017-09-24T23:45:55.066Z,15.23
2017-09-24T23:48:23.392Z,17.10
2017-09-24T23:50:51.741Z,16.20
2017-09-24T23:53:20.073Z,15.13
2017-09-24T23:55:48.428Z,14.27
2017-09-24T23:58:16.779Z,17.60
